Blaby, United Kingdom
Current Conditions -  °F | °C
As of 5:50 PM on Sunday 21 Dec 2014 (Local Time) from EGNX Reporting Station
Broken Clouds Broken Clouds  
Wind Chill: 10°   Ceiling: 2100
Heat Index: 10°   Visibility: 6mi
Dew Point:   Wind: 18mph
Humidity: 87%   Direction: 200°SSW
Pressure: 30.03"   Gusts: NA
Location:  52.58°N, 1.16°W
Report Text: EGNX 211750Z 20016KT 9999 BKN021 10/08 Q1017
Loading
Personal Weather Stations






























Interactive Weather Map New forecast layout! Learn more

10-Day Weather Forecast

Advertisements
Track Severe Weather on mobile